Time;durP1;ratioP1;P1;durP2;ratioP2;P2;SDS_P1;SDS_P2;PMS_P1;PMS_P2;Temp;Humidity;BMP_temperature;BMP_pressure;BME280_temperature;BME280_humidity;BME280_pressure;Samples;Min_cycle;Max_cycle;Signal;HPM_P1;HPM_P2
2023/02/17 00:03:36;;;;;;;131.50;61.63;;;;;;;5.13;70.79;100577.84;10423468;28;20047;-63
2023/02/17 00:08:38;;;;;;;85.65;49.05;;;;;;;5.33;70.86;100575.59;10422618;28;20055;-63
2023/02/17 00:13:41;;;;;;;89.53;49.38;;;;;;;5.61;70.42;100578.22;10423287;28;20049;-63
2023/02/17 00:18:43;;;;;;;78.47;45.20;;;;;;;5.75;70.43;100574.34;10424946;28;20516;-63
2023/02/17 00:23:46;;;;;;;43.13;28.52;;;;;;;6.04;71.10;100569.09;10419801;28;20056;-63
2023/02/17 00:28:48;;;;;;;43.65;28.70;;;;;;;6.42;70.92;100565.31;10420735;28;20110;-63
2023/02/17 00:33:53;;;;;;;34.42;23.52;;;;;;;6.75;71.19;100558.13;10424284;28;20296;-63
2023/02/17 00:38:56;;;;;;;38.20;27.98;;;;;;;6.97;71.00;100559.94;10424015;28;20045;-63
2023/02/17 00:43:58;;;;;;;30.20;21.67;;;;;;;7.04;70.89;100558.81;10420141;28;20052;-63
2023/02/17 00:49:00;;;;;;;26.73;19.70;;;;;;;7.16;70.94;100554.94;10424764;28;20143;-63
2023/02/17 00:54:02;;;;;;;28.38;18.98;;;;;;;7.39;70.61;100554.09;10420109;28;20052;-63
2023/02/17 00:59:04;;;;;;;23.48;16.45;;;;;;;7.55;70.41;100556.06;10423616;28;20067;-63
2023/02/17 01:04:06;;;;;;;26.25;17.60;;;;;;;7.71;70.24;100559.78;10421817;28;20994;-63
2023/02/17 01:09:12;;;;;;;25.52;18.10;;;;;;;7.76;70.00;100560.47;10421679;28;20128;-63
2023/02/17 01:14:13;;;;;;;26.05;17.58;;;;;;;7.83;69.86;100550.69;10423670;28;20056;-63
2023/02/17 01:19:18;;;;;;;30.70;19.45;;;;;;;7.88;69.87;100541.78;10422361;28;20052;-63
2023/02/17 01:24:19;;;;;;;26.17;17.65;;;;;;;7.99;69.82;100537.00;10418952;28;20543;-63
2023/02/17 01:29:21;;;;;;;22.70;15.93;;;;;;;8.04;69.69;100539.41;10421781;28;20420;-63
2023/02/17 01:34:23;;;;;;;42.75;26.58;;;;;;;8.05;69.48;100530.69;10421097;28;20053;-63
2023/02/17 01:39:24;;;;;;;33.00;23.13;;;;;;;7.96;69.37;100505.00;10419538;28;20049;-63
2023/02/17 01:44:26;;;;;;;30.58;18.40;;;;;;;7.97;69.52;100504.09;10422473;28;20049;-63
2023/02/17 01:49:35;;;;;;;31.88;20.38;;;;;;;8.02;69.53;100503.00;10422313;28;20519;-63
2023/02/17 01:55:01;;;;;;;24.50;18.95;;;;;;;7.96;69.63;100490.22;10425512;28;20751;-63
2023/02/17 02:00:05;;;;;;;26.17;17.10;;;;;;;7.98;69.52;100475.38;10419399;28;20045;-64
2023/02/17 02:05:08;;;;;;;22.27;16.35;;;;;;;8.05;69.42;100478.59;10418042;28;20060;-63
2023/02/17 02:10:11;;;;;;;22.92;15.82;;;;;;;7.97;69.61;100463.28;10418744;28;20045;-63
2023/02/17 02:15:18;;;;;;;23.60;17.17;;;;;;;8.03;69.62;100457.81;10420347;28;20045;-62
2023/02/17 02:20:29;;;;;;;24.75;17.65;;;;;;;8.06;69.62;100453.41;10417596;28;20052;-63
2023/02/17 02:25:39;;;;;;;22.67;15.07;;;;;;;8.08;69.33;100452.41;10420121;28;20053;-63
2023/02/17 02:31:15;;;;;;;19.70;14.93;;;;;;;8.03;69.75;100443.94;10417150;28;20051;-63
2023/02/17 02:36:27;;;;;;;19.95;13.38;;;;;;;7.95;70.00;100436.47;10422123;28;20045;-63
2023/02/17 02:41:35;;;;;;;15.85;12.68;;;;;;;7.94;70.18;100434.75;10414322;28;20441;-63
2023/02/17 02:46:37;;;;;;;17.85;12.60;;;;;;;7.97;70.22;100429.44;10415155;28;20618;-63
2023/02/17 02:52:02;;;;;;;19.92;11.82;;;;;;;7.97;70.65;100429.44;10417090;28;20041;-63
2023/02/17 02:57:25;;;;;;;15.45;11.15;;;;;;;8.02;70.70;100422.25;10416717;28;20049;-63
2023/02/17 03:02:34;;;;;;;15.65;11.20;;;;;;;8.11;70.56;100422.81;10434797;28;20086;-63
2023/02/17 03:07:54;;;;;;;15.80;11.02;;;;;;;8.13;70.76;100424.44;10423111;28;20049;-63
2023/02/17 03:12:56;;;;;;;16.15;10.23;;;;;;;8.21;70.65;100424.13;10424337;28;20059;-63
2023/02/17 03:18:01;;;;;;;13.93;9.18;;;;;;;8.26;70.60;100411.75;10423020;28;20059;-63
2023/02/17 03:23:04;;;;;;;13.18;9.15;;;;;;;8.40;70.26;100412.00;10424711;28;20250;-63
2023/02/17 03:28:05;;;;;;;13.23;9.10;;;;;;;8.49;70.15;100416.81;10423604;28;20056;-63
2023/02/17 03:33:07;;;;;;;12.75;8.30;;;;;;;8.54;69.92;100422.69;10419017;28;20041;-63
2023/02/17 03:38:09;;;;;;;11.07;8.70;;;;;;;8.59;69.94;100426.78;10420277;28;20493;-63
2023/02/17 03:43:11;;;;;;;11.98;8.50;;;;;;;8.55;70.03;100416.53;10425445;28;20045;-63
2023/02/17 03:48:12;;;;;;;12.40;7.70;;;;;;;8.58;69.88;100411.22;10422380;28;20063;-63
2023/02/17 03:53:14;;;;;;;11.18;7.45;;;;;;;8.67;69.99;100418.59;10422185;28;20037;-63
2023/02/17 03:58:15;;;;;;;11.45;8.05;;;;;;;8.70;69.46;100410.66;10417896;28;20048;-63
2023/02/17 04:03:17;;;;;;;10.30;6.88;;;;;;;8.70;69.79;100397.63;10418871;28;20052;-63
2023/02/17 04:08:20;;;;;;;9.68;7.00;;;;;;;8.69;69.93;100402.00;10418464;28;20049;-63
2023/02/17 04:13:22;;;;;;;10.13;6.97;;;;;;;8.66;70.28;100393.47;10416323;28;20055;-63
2023/02/17 04:18:24;;;;;;;10.00;6.55;;;;;;;8.74;69.94;100401.78;10415789;28;20374;-63
2023/02/17 04:23:26;;;;;;;7.78;6.03;;;;;;;8.73;69.80;100392.25;10417308;28;20047;-63
2023/02/17 04:28:28;;;;;;;7.40;5.63;;;;;;;8.81;69.86;100392.78;10414273;28;20053;-63
2023/02/17 04:33:30;;;;;;;6.35;5.25;;;;;;;8.83;69.57;100388.34;10423071;28;20049;-63
2023/02/17 04:38:32;;;;;;;6.88;5.28;;;;;;;8.88;69.01;100385.50;10424807;28;20493;-63
2023/02/17 04:43:34;;;;;;;6.70;4.90;;;;;;;8.90;69.15;100379.31;10420129;28;20049;-63
2023/02/17 04:48:35;;;;;;;5.82;4.53;;;;;;;8.76;69.62;100385.16;10421543;28;20041;-63
2023/02/17 04:53:37;;;;;;;6.45;4.53;;;;;;;8.98;69.00;100386.78;10421781;28;20045;-63
2023/02/17 04:58:39;;;;;;;5.65;4.60;;;;;;;8.93;69.02;100407.88;10424042;28;20049;-63
2023/02/17 05:03:41;;;;;;;6.90;4.50;;;;;;;8.99;68.88;100407.59;10421558;28;20060;-63
2023/02/17 05:08:42;;;;;;;4.97;3.80;;;;;;;8.90;68.87;100402.78;10416697;28;20386;-63
2023/02/17 05:13:44;;;;;;;5.68;4.00;;;;;;;8.99;68.65;100394.56;10421777;28;20060;-63
2023/02/17 05:18:45;;;;;;;6.22;4.00;;;;;;;8.91;68.87;100403.66;10421431;28;20056;-64
2023/02/17 05:23:47;;;;;;;5.70;3.90;;;;;;;8.88;68.74;100381.16;10425189;28;20187;-63
2023/02/17 05:28:49;;;;;;;5.28;4.13;;;;;;;8.88;68.89;100403.75;10421533;28;20045;-63
2023/02/17 05:33:53;;;;;;;5.43;4.15;;;;;;;8.96;68.55;100399.91;10424870;28;20421;-63
2023/02/17 05:38:54;;;;;;;6.28;4.00;;;;;;;8.96;68.68;100406.88;10419265;28;20045;-64
2023/02/17 05:43:56;;;;;;;7.63;4.60;;;;;;;9.07;67.85;100418.53;10420903;28;20401;-63
2023/02/17 05:48:57;;;;;;;6.30;4.80;;;;;;;9.11;68.00;100404.44;10421236;28;20091;-64
2023/02/17 05:53:59;;;;;;;6.88;4.90;;;;;;;9.13;67.98;100394.75;10422130;28;20606;-63
2023/02/17 05:59:01;;;;;;;11.48;7.53;;;;;;;9.16;67.68;100392.00;10420780;28;20060;-63
2023/02/17 06:04:03;;;;;;;9.95;6.80;;;;;;;9.14;67.66;100380.78;10418178;28;20147;-63
2023/02/17 06:09:05;;;;;;;10.75;6.75;;;;;;;9.04;67.61;100379.53;10420193;28;20051;-64
2023/02/17 06:14:06;;;;;;;13.90;9.98;;;;;;;9.12;67.43;100386.97;10418466;28;20079;-63
2023/02/17 06:19:08;;;;;;;7.43;5.32;;;;;;;9.16;67.28;100376.34;10417438;28;20572;-64
2023/02/17 06:24:10;;;;;;;7.20;5.38;;;;;;;9.14;67.39;100380.78;10418892;28;20048;-63
2023/02/17 06:29:11;;;;;;;6.80;5.30;;;;;;;9.15;67.25;100397.28;10419981;28;20493;-64
2023/02/17 06:34:13;;;;;;;8.32;5.88;;;;;;;9.25;66.99;100404.63;10419690;28;20393;-63
2023/02/17 06:39:15;;;;;;;7.07;5.55;;;;;;;9.31;66.97;100406.09;10418427;28;20044;-64
2023/02/17 06:44:16;;;;;;;7.65;5.95;;;;;;;9.38;66.66;100418.78;10417854;28;20052;-63
2023/02/17 06:49:18;;;;;;;8.65;6.07;;;;;;;9.31;66.74;100403.50;10402916;28;20324;-63
2023/02/17 06:54:20;;;;;;;8.02;6.18;;;;;;;9.39;66.47;100410.03;10415378;28;20045;-63
2023/02/17 06:59:21;;;;;;;10.38;6.47;;;;;;;9.36;66.76;100411.97;10415586;28;20053;-63
2023/02/17 07:04:23;;;;;;;8.38;6.32;;;;;;;9.39;66.36;100396.13;10418692;28;20053;-64
2023/02/17 07:09:24;;;;;;;7.65;6.55;;;;;;;9.47;66.40;100400.09;10413597;28;20664;-63
2023/02/17 07:14:26;;;;;;;8.95;6.43;;;;;;;9.47;66.29;100392.25;10412953;28;20362;-64
2023/02/17 07:19:28;;;;;;;10.10;6.80;;;;;;;9.58;66.11;100403.00;10411799;28;20051;-63
2023/02/17 07:24:30;;;;;;;10.02;6.70;;;;;;;9.68;65.82;100397.38;10413923;28;20041;-64
2023/02/17 07:29:32;;;;;;;8.90;6.45;;;;;;;9.66;65.95;100405.31;10417350;28;20056;-63
2023/02/17 07:34:34;;;;;;;10.93;7.35;;;;;;;9.57;66.39;100396.09;10416070;28;20701;-63
2023/02/17 07:39:35;;;;;;;10.48;7.25;;;;;;;9.77;65.78;100396.94;10417426;28;20761;-63
2023/02/17 07:44:37;;;;;;;9.60;6.65;;;;;;;9.87;65.83;100382.50;10416211;28;20485;-61
2023/02/17 07:49:38;;;;;;;9.40;7.25;;;;;;;10.02;65.55;100376.50;10418158;28;20056;-61
2023/02/17 07:54:40;;;;;;;9.35;6.43;;;;;;;10.08;65.53;100386.66;10418304;28;20505;-63
2023/02/17 07:59:42;;;;;;;8.90;6.70;;;;;;;10.08;65.37;100389.25;10417911;28;20053;-63
2023/02/17 08:04:43;;;;;;;8.48;6.47;;;;;;;10.09;65.99;100388.34;10416056;28;20638;-61
2023/02/17 08:15:09;;;;;;;7.95;6.28;;;;;;;10.15;65.96;100382.81;10432261;28;20045;-63
2023/02/17 08:20:12;;;;;;;9.68;6.93;;;;;;;10.06;66.73;100391.97;10434297;28;20409;-63
2023/02/17 08:25:14;;;;;;;10.45;6.65;;;;;;;9.92;67.59;100397.03;10434135;28;20134;-63
2023/02/17 08:30:16;;;;;;;8.25;6.35;;;;;;;9.93;67.76;100393.47;10434049;28;20045;-63
2023/02/17 08:35:21;;;;;;;8.35;6.82;;;;;;;9.90;68.41;100382.34;10434028;28;20049;-63
2023/02/17 08:40:23;;;;;;;9.48;7.40;;;;;;;10.04;68.54;100406.88;10433784;28;20048;-62
2023/02/17 08:45:25;;;;;;;8.30;6.30;;;;;;;10.07;68.75;100401.50;10430958;28;20520;-63
2023/02/17 08:50:27;;;;;;;10.68;6.68;;;;;;;10.21;68.40;100404.28;10430834;28;20073;-63
2023/02/17 08:55:28;;;;;;;9.15;6.88;;;;;;;10.22;68.23;100415.53;10429967;28;20413;-63
2023/02/17 09:00:44;;;;;;;9.32;6.30;;;;;;;10.25;68.21;100397.09;10427105;28;20072;-63
2023/02/17 09:05:46;;;;;;;8.80;6.60;;;;;;;10.42;67.29;100407.53;10428161;28;20409;-63
2023/02/17 09:10:48;;;;;;;9.05;5.97;;;;;;;10.57;67.47;100416.34;10430704;28;20049;-63
2023/02/17 09:15:52;;;;;;;7.50;5.90;;;;;;;10.82;66.82;100417.63;10431756;28;20096;-63
2023/02/17 09:20:54;;;;;;;7.78;5.90;;;;;;;10.95;66.44;100425.66;10430326;28;20049;-63
2023/02/17 09:26:04;;;;;;;7.55;5.65;;;;;;;10.68;66.98;100429.72;10431901;28;20056;-61
2023/02/17 09:31:09;;;;;;;;;;;;;;;10.39;67.14;100421.63;10430178;28;20469;-61
2023/02/17 09:36:13;;;;;;;8.27;5.68;;;;;;;10.75;66.78;100434.56;10417916;28;19936;-61
2023/02/17 09:41:23;;;;;;;6.25;5.25;;;;;;;10.78;66.83;100438.78;10423741;28;20076;-61
2023/02/17 09:46:27;;;;;;;7.05;5.30;;;;;;;11.12;66.11;100428.25;10418177;28;20492;-61
2023/02/17 09:51:37;;;;;;;9.02;5.25;;;;;;;11.19;65.74;100419.16;10420473;28;20517;-62
2023/02/17 09:56:44;;;;;;;8.13;4.90;;;;;;;11.35;65.42;100413.91;10420698;28;20044;-61
2023/02/17 10:01:51;;;;;;;6.03;4.50;;;;;;;11.64;64.69;100418.38;10423212;28;20406;-61
2023/02/17 10:07:27;;;;;;;5.18;4.43;;;;;;;11.68;64.19;100419.88;10421160;28;20063;-61
2023/02/17 10:12:37;;;;;;;6.75;4.63;;;;;;;11.71;64.53;100440.66;10425087;28;20052;-61
2023/02/17 10:18:13;;;;;;;7.63;4.57;;;;;;;11.66;63.98;100427.00;10416776;28;20045;-61
2023/02/17 10:23:23;;;;;;;5.28;4.07;;;;;;;11.81;63.71;100415.63;10422558;28;20045;-61
2023/02/17 10:28:46;;;;;;;6.03;4.32;;;;;;;12.04;63.56;100423.88;10419143;28;20075;-61
2023/02/17 10:34:13;;;;;;;6.25;4.20;;;;;;;12.03;62.96;100416.06;10424587;28;20140;-63
2023/02/17 10:39:44;;;;;;;6.72;3.97;;;;;;;12.19;62.78;100403.78;10419304;28;20061;-62
2023/02/17 10:44:49;;;;;;;6.40;3.60;;;;;;;12.36;62.89;100408.03;10407235;28;20040;-62
2023/02/17 10:49:54;;;;;;;4.90;3.50;;;;;;;12.37;62.74;100415.84;10418962;28;20060;-61
2023/02/17 10:55:02;;;;;;;4.35;3.33;;;;;;;12.35;62.46;100406.38;10419159;28;20049;-62
2023/02/17 11:00:23;;;;;;;5.93;3.50;;;;;;;12.38;62.54;100404.41;10420735;28;20523;-62
2023/02/17 11:05:33;;;;;;;4.75;3.15;;;;;;;12.49;62.16;100404.59;10419365;28;20094;-62
2023/02/17 11:10:39;;;;;;;4.97;3.17;;;;;;;12.49;62.48;100402.00;10423386;28;20049;-63
2023/02/17 11:15:45;;;;;;;6.68;3.33;;;;;;;12.40;62.03;100406.91;10420080;28;21021;-63
2023/02/17 11:20:48;;;;;;;5.55;3.50;;;;;;;12.38;62.39;100404.41;10421769;28;20588;-63
2023/02/17 11:26:00;;;;;;;5.55;3.20;;;;;;;12.63;61.58;100394.13;10412516;28;20068;-62
2023/02/17 11:31:03;;;;;;;4.30;2.90;;;;;;;12.67;61.69;100400.88;10414419;28;20490;-62
2023/02/17 11:36:12;;;;;;;5.07;3.10;;;;;;;12.80;61.56;100387.84;10404266;28;20053;-62
2023/02/17 11:41:14;;;;;;;5.45;3.20;;;;;;;13.03;60.86;100391.69;10411283;28;20059;-62
2023/02/17 11:46:43;;;;;;;4.00;2.90;;;;;;;13.04;60.33;100403.84;10412204;28;20404;-62
2023/02/17 11:51:57;;;;;;;4.90;2.60;;;;;;;12.62;61.20;100400.28;10408464;28;20052;-62
2023/02/17 11:57:37;;;;;;;4.10;2.55;;;;;;;12.70;61.07;100384.91;10413239;28;20527;-62
2023/02/17 12:02:57;;;;;;;3.78;2.40;;;;;;;12.69;60.86;100380.63;10395421;28;20056;-62
2023/02/17 12:08:14;;;;;;;3.25;2.13;;;;;;;13.02;60.62;100371.59;10406135;28;20063;-62
2023/02/17 12:13:32;;;;;;;3.53;1.90;;;;;;;13.11;60.03;100350.84;10416494;28;20053;-62
2023/02/17 12:18:41;;;;;;;3.00;1.90;;;;;;;13.04;60.13;100344.31;10415239;28;20052;-63
2023/02/17 12:24:17;;;;;;;3.00;1.90;;;;;;;13.25;59.78;100329.78;10412672;28;20049;-63
2023/02/17 12:30:00;;;;;;;4.53;2.40;;;;;;;13.15;59.83;100320.00;10412284;28;20444;-63
2023/02/17 12:35:39;;;;;;;4.07;1.80;;;;;;;13.33;58.97;100317.00;10517751;23;20013;-58
2023/02/17 12:40:49;;;;;;;3.65;1.90;;;;;;;13.22;59.43;100323.91;10367332;28;20061;-58
2023/02/17 12:45:52;;;;;;;3.13;1.85;;;;;;;13.29;59.78;100304.19;10369256;28;20045;-58
2023/02/17 12:51:00;;;;;;;2.25;1.50;;;;;;;13.27;59.70;100292.94;10367949;28;20041;-58
2023/02/17 12:56:07;;;;;;;3.38;1.73;;;;;;;13.33;59.80;100293.34;10375086;28;20492;-58
2023/02/17 13:01:12;;;;;;;1.90;1.33;;;;;;;13.27;59.44;100298.19;10375233;28;20182;-58
2023/02/17 13:06:23;;;;;;;1.73;1.23;;;;;;;13.11;59.58;100298.31;10367198;28;20050;-58
2023/02/17 13:11:26;;;;;;;;;;;;;;;12.68;60.91;100308.06;10381379;28;20049;-59
2023/02/17 13:16:28;;;;;;;2.30;1.30;;;;;;;13.17;60.22;100310.22;10369149;28;19933;-58
2023/02/17 13:21:32;;;;;;;1.75;1.20;;;;;;;13.04;59.75;100289.16;10377114;28;20512;-58
2023/02/17 13:26:36;;;;;;;2.67;1.40;;;;;;;13.10;60.19;100285.28;10371563;28;20053;-57
2023/02/17 13:31:57;;;;;;;1.90;1.30;;;;;;;13.08;59.91;100274.06;10380181;28;20201;-58
2023/02/17 13:37:04;;;;;;;2.20;1.40;;;;;;;13.04;60.51;100275.19;10374512;28;20131;-58
2023/02/17 13:42:31;;;;;;;2.10;1.27;;;;;;;13.00;60.26;100269.31;10372414;28;20519;-58
2023/02/17 13:47:34;;;;;;;1.80;1.20;;;;;;;13.00;60.43;100257.94;10374740;28;20060;-58
2023/02/17 13:52:42;;;;;;;1.55;1.27;;;;;;;13.05;60.25;100254.06;10376876;28;20050;-57
2023/02/17 13:57:44;;;;;;;3.63;1.30;;;;;;;13.14;60.37;100258.75;10373096;28;20332;-58
2023/02/17 14:02:49;;;;;;;2.00;1.20;;;;;;;13.19;60.21;100254.03;10379059;28;20679;-58
2023/02/17 14:07:56;;;;;;;2.63;1.10;;;;;;;13.26;59.73;100250.06;10369257;28;20763;-58
2023/02/17 14:12:58;;;;;;;2.00;1.10;;;;;;;13.12;60.28;100252.75;10372076;28;20488;-58
2023/02/17 14:18:15;;;;;;;3.13;1.10;;;;;;;13.21;59.60;100246.06;10367888;28;20386;-58
2023/02/17 14:23:16;;;;;;;1.27;1.02;;;;;;;13.22;60.54;100263.50;10378806;28;20059;-58
2023/02/17 14:28:27;;;;;;;3.75;1.30;;;;;;;13.21;59.95;100270.53;10376099;28;20060;-57
2023/02/17 14:33:28;;;;;;;1.70;1.10;;;;;;;13.16;60.27;100291.00;10376465;28;20164;-58
2023/02/17 14:38:36;;;;;;;1.65;1.20;;;;;;;13.18;60.45;100272.50;10363207;28;20046;-58
2023/02/17 14:43:38;;;;;;;2.13;1.20;;;;;;;13.02;60.58;100277.91;10374791;28;20290;-58
2023/02/17 14:48:39;;;;;;;2.03;1.20;;;;;;;13.13;60.49;100275.44;10370502;28;20365;-58
2023/02/17 14:53:42;;;;;;;1.58;1.17;;;;;;;13.20;60.41;100275.88;10367774;28;20060;-58
2023/02/17 14:58:45;;;;;;;1.73;1.10;;;;;;;13.03;60.73;100299.78;10375950;28;20046;-58
2023/02/17 15:03:46;;;;;;;1.67;1.10;;;;;;;13.07;60.42;100302.09;10367721;28;20416;-58
2023/02/17 15:08:48;;;;;;;2.40;1.20;;;;;;;13.11;60.15;100302.75;10365069;28;20480;-58
2023/02/17 15:13:50;;;;;;;2.50;1.30;;;;;;;13.03;60.91;100311.09;10370929;28;20049;-58
2023/02/17 15:18:51;;;;;;;1.73;1.02;;;;;;;13.05;60.60;100319.72;10362053;28;20041;-57
2023/02/17 15:23:55;;;;;;;2.38;1.13;;;;;;;13.04;60.37;100332.94;10379009;28;20397;-58
2023/02/17 15:28:58;;;;;;;2.58;1.10;;;;;;;13.05;60.39;100321.53;10371892;28;20212;-58
2023/02/17 15:34:00;;;;;;;1.13;1.02;;;;;;;13.08;60.18;100289.81;10377039;28;20042;-58
2023/02/17 15:39:01;;;;;;;3.80;1.27;;;;;;;12.95;60.64;100308.97;10368723;28;20049;-58
2023/02/17 15:44:05;;;;;;;2.58;1.40;;;;;;;12.99;60.50;100327.97;10362147;28;20050;-58
2023/02/17 15:49:09;;;;;;;3.10;1.20;;;;;;;12.92;60.66;100322.28;10374323;28;20140;-58
2023/02/17 15:54:12;;;;;;;1.45;1.10;;;;;;;12.90;60.48;100326.78;10379871;28;20050;-58
2023/02/17 15:59:25;;;;;;;1.83;1.20;;;;;;;12.92;60.53;100318.84;10374525;28;20057;-58
2023/02/17 16:04:27;;;;;;;2.20;1.20;;;;;;;12.82;60.76;100300.16;10374725;28;20308;-57
2023/02/17 16:09:29;;;;;;;1.98;1.35;;;;;;;12.60;61.14;100291.16;10369318;28;20045;-58
2023/02/17 16:14:36;;;;;;;3.03;1.30;;;;;;;12.48;61.41;100312.84;10382706;28;20038;-57
2023/02/17 16:19:39;;;;;;;1.95;1.30;;;;;;;12.24;61.89;100304.69;10377846;28;20037;-57
2023/02/17 16:24:40;;;;;;;1.70;1.30;;;;;;;12.35;61.97;100277.84;10374612;28;20046;-58
2023/02/17 16:29:42;;;;;;;2.40;1.50;;;;;;;12.30;61.96;100303.50;10382532;28;20492;-58
2023/02/17 16:34:45;;;;;;;2.45;1.50;;;;;;;12.41;61.71;100306.31;10377340;28;20527;-57
2023/02/17 16:39:48;;;;;;;3.22;1.50;;;;;;;12.42;61.42;100308.84;10379715;28;20053;-58
2023/02/17 16:44:50;;;;;;;2.78;1.50;;;;;;;12.46;61.31;100302.47;10373100;28;20057;-58
2023/02/17 16:49:53;;;;;;;3.05;1.55;;;;;;;12.53;61.16;100314.28;10376583;28;20714;-58
2023/02/17 16:54:57;;;;;;;2.70;1.35;;;;;;;12.48;60.99;100320.72;10378734;28;20141;-58
2023/02/17 17:00:00;;;;;;;2.08;1.40;;;;;;;12.54;61.04;100323.81;10384002;28;20057;-58
2023/02/17 17:05:02;;;;;;;2.40;1.60;;;;;;;12.55;60.73;100327.31;10380975;28;20056;-58
2023/02/17 17:10:14;;;;;;;2.78;1.50;;;;;;;12.63;60.30;100339.03;10382517;28;20470;-58
2023/02/17 17:15:18;;;;;;;2.67;1.50;;;;;;;12.64;60.66;100343.31;10371786;28;20505;-58
2023/02/17 17:20:25;;;;;;;2.53;1.50;;;;;;;12.65;60.31;100350.25;10391572;28;20042;-57
2023/02/17 17:25:29;;;;;;;3.10;1.92;;;;;;;12.55;60.64;100354.38;10378084;28;20049;-58
2023/02/17 17:30:36;;;;;;;4.18;1.70;;;;;;;12.58;60.67;100377.81;10378107;28;20056;-58
2023/02/17 17:35:39;;;;;;;4.53;1.70;;;;;;;12.53;60.69;100390.38;10368097;28;20217;-56
2023/02/17 17:40:47;;;;;;;3.20;1.70;;;;;;;12.46;61.13;100394.28;10375346;28;20357;-58
2023/02/17 17:45:50;;;;;;;3.80;1.80;;;;;;;12.54;60.90;100415.66;10367850;28;20060;-58
2023/02/17 17:50:52;;;;;;;2.95;1.73;;;;;;;12.54;60.85;100431.41;10375466;28;20053;-58
2023/02/17 17:55:54;;;;;;;2.95;2.00;;;;;;;12.51;61.23;100444.72;10374648;28;20041;-58
2023/02/17 18:00:56;;;;;;;3.92;2.22;;;;;;;12.31;63.05;100458.16;10377370;28;20049;-58
2023/02/17 18:05:58;;;;;;;4.05;2.33;;;;;;;12.20;64.00;100472.78;10377113;28;20556;-58
2023/02/17 18:11:00;;;;;;;3.83;2.50;;;;;;;12.06;64.72;100490.16;10381881;28;20216;-58
2023/02/17 18:16:02;;;;;;;4.25;2.90;;;;;;;11.83;66.20;100498.47;10373953;28;20041;-57
2023/02/17 18:21:04;;;;;;;4.55;2.90;;;;;;;11.79;66.38;100514.44;10381379;28;20104;-58
2023/02/17 18:26:07;;;;;;;5.28;3.40;;;;;;;11.68;67.39;100527.31;10371644;28;20049;-58
2023/02/17 18:31:14;;;;;;;6.35;3.70;;;;;;;11.65;67.74;100527.47;10380258;28;20103;-58
2023/02/17 18:36:20;;;;;;;7.63;4.05;;;;;;;11.65;68.05;100537.94;10371745;28;20096;-58
2023/02/17 18:41:23;;;;;;;6.25;4.45;;;;;;;11.53;68.79;100542.09;10373577;28;20072;-58
2023/02/17 18:46:25;;;;;;;5.07;4.07;;;;;;;11.53;69.02;100554.31;10376373;28;20052;-57
2023/02/17 18:51:27;;;;;;;6.45;4.60;;;;;;;11.38;69.45;100557.78;10380208;28;20099;-58
2023/02/17 18:56:31;;;;;;;6.85;5.55;;;;;;;11.24;70.12;100567.19;10373140;28;20421;-58
2023/02/17 19:01:37;;;;;;;7.07;5.38;;;;;;;11.17;70.58;100571.03;10380564;28;20148;-58
2023/02/17 19:06:39;;;;;;;9.35;6.65;;;;;;;11.25;70.52;100578.53;10374552;28;20038;-58
2023/02/17 19:11:41;;;;;;;9.63;7.07;;;;;;;11.17;70.66;100578.91;10378909;28;20417;-58
2023/02/17 19:16:43;;;;;;;9.25;7.20;;;;;;;11.14;71.09;100586.06;10364358;28;20046;-58
2023/02/17 19:21:44;;;;;;;12.20;8.75;;;;;;;11.25;70.76;100589.81;10372273;28;20053;-58
2023/02/17 19:26:46;;;;;;;9.95;7.82;;;;;;;11.13;70.97;100593.06;10376171;28;20046;-58
2023/02/17 19:31:48;;;;;;;9.98;8.40;;;;;;;11.16;70.97;100594.69;10378906;28;20111;-58
2023/02/17 19:36:50;;;;;;;5.25;4.43;;;;;;;11.14;70.39;100597.41;10378342;28;20101;-58
2023/02/17 19:41:52;;;;;;;4.82;3.80;;;;;;;11.14;69.50;100586.94;10393582;28;20044;-58
2023/02/17 19:46:54;;;;;;;6.50;4.85;;;;;;;11.14;69.75;100594.78;10379786;28;20045;-57
2023/02/17 19:51:55;;;;;;;5.88;4.80;;;;;;;11.10;69.89;100595.88;10374689;28;20500;-58
2023/02/17 19:56:57;;;;;;;9.20;5.63;;;;;;;11.11;69.65;100597.53;10374241;28;20057;-58
2023/02/17 20:01:59;;;;;;;6.45;4.75;;;;;;;11.12;69.83;100609.72;10370940;28;20057;-59
2023/02/17 20:07:00;;;;;;;5.60;4.18;;;;;;;10.97;70.14;100609.63;10368972;28;20049;-58
2023/02/17 20:12:02;;;;;;;5.15;4.40;;;;;;;11.10;69.59;100619.44;10375983;28;20457;-58
2023/02/17 20:17:04;;;;;;;5.70;4.38;;;;;;;11.02;69.50;100624.16;10368337;28;20053;-58
2023/02/17 20:22:07;;;;;;;6.30;4.75;;;;;;;11.02;69.67;100618.94;10392819;28;20190;-58
2023/02/17 20:27:09;;;;;;;7.32;4.88;;;;;;;10.99;69.74;100621.69;10362191;28;20049;-58
2023/02/17 20:32:11;;;;;;;9.27;4.80;;;;;;;11.11;69.08;100621.09;10367943;28;20065;-58
2023/02/17 20:37:13;;;;;;;5.85;4.97;;;;;;;11.10;69.13;100605.47;10368901;28;20138;-59
2023/02/17 20:42:14;;;;;;;6.03;4.70;;;;;;;11.17;68.42;100623.41;10372051;28;20048;-58
2023/02/17 20:47:16;;;;;;;6.97;5.07;;;;;;;11.20;68.49;100623.25;10368799;28;20053;-58
2023/02/17 20:52:18;;;;;;;6.65;5.53;;;;;;;11.13;68.63;100619.25;10371336;28;20053;-58
2023/02/17 20:57:19;;;;;;;6.10;5.00;;;;;;;11.17;68.76;100617.34;10369884;28;20052;-58
2023/02/17 21:02:21;;;;;;;6.53;5.15;;;;;;;11.11;68.74;100623.72;10369852;28;20710;-58
2023/02/17 21:07:23;;;;;;;7.78;4.18;;;;;;;11.14;68.78;100635.81;10372186;28;20509;-58
2023/02/17 21:12:25;;;;;;;6.13;4.15;;;;;;;11.20;68.39;100627.66;10365017;28;20042;-58
2023/02/17 21:17:26;;;;;;;6.43;4.60;;;;;;;11.21;68.05;100619.69;10367099;28;20060;-58
2023/02/17 21:22:28;;;;;;;6.22;4.63;;;;;;;11.27;67.94;100618.56;10367967;28;20519;-58
2023/02/17 21:27:30;;;;;;;6.10;5.07;;;;;;;11.08;68.43;100623.91;10363076;28;20049;-58
2023/02/17 21:32:32;;;;;;;8.23;5.63;;;;;;;11.12;68.54;100628.06;10366013;28;20402;-58
2023/02/17 21:37:33;;;;;;;8.65;7.03;;;;;;;11.28;68.42;100626.34;10373214;28;20298;-58
2023/02/17 21:47:57;;;;;;;5.82;4.25;;;;;;;11.18;68.64;100637.34;10368979;28;20095;-58
2023/02/17 21:52:58;;;;;;;4.72;3.70;;;;;;;11.13;68.24;100642.00;10369114;28;20049;-58
2023/02/17 21:58:00;;;;;;;4.07;2.50;;;;;;;11.12;67.61;100640.28;10368361;28;20053;-58
2023/02/17 22:03:02;;;;;;;3.22;2.10;;;;;;;11.27;66.91;100647.38;10362220;28;20049;-58
2023/02/17 22:08:03;;;;;;;5.38;2.10;;;;;;;11.13;66.42;100645.44;10375124;28;20568;-59
2023/02/17 22:13:05;;;;;;;2.67;1.80;;;;;;;11.09;66.21;100641.28;10363076;28;20053;-59
2023/02/17 22:18:07;;;;;;;3.17;1.40;;;;;;;11.10;65.61;100636.91;10369506;28;20429;-58
2023/02/17 22:23:09;;;;;;;3.40;1.70;;;;;;;11.01;65.65;100634.72;10364075;28;20336;-59
2023/02/17 22:28:10;;;;;;;2.05;1.50;;;;;;;10.85;65.75;100639.00;10368150;28;20405;-59
2023/02/17 22:33:14;;;;;;;2.83;1.40;;;;;;;10.80;65.72;100627.94;10362317;28;20046;-58
2023/02/17 22:38:17;;;;;;;1.83;1.23;;;;;;;10.75;65.50;100640.38;10368815;28;20406;-58
2023/02/17 22:43:19;;;;;;;1.73;1.30;;;;;;;10.82;65.53;100640.03;10363127;28;20342;-58
2023/02/17 22:48:20;;;;;;;1.45;1.17;;;;;;;10.74;65.52;100634.31;10367231;28;20135;-58
2023/02/17 22:53:22;;;;;;;1.55;1.02;;;;;;;10.70;65.30;100635.41;10369432;28;20049;-58
2023/02/17 22:58:25;;;;;;;1.70;1.10;;;;;;;10.72;65.52;100644.03;10360234;28;20162;-58
2023/02/17 23:03:27;;;;;;;1.23;1.02;;;;;;;10.75;65.45;100640.38;10379285;28;20045;-59
2023/02/17 23:08:29;;;;;;;1.60;1.20;;;;;;;10.62;65.56;100634.94;10363176;28;20045;-59
2023/02/17 23:13:31;;;;;;;1.65;1.08;;;;;;;10.57;65.72;100630.81;10366359;28;20421;-59
2023/02/17 23:18:34;;;;;;;2.35;1.10;;;;;;;10.55;65.72;100636.13;10358241;28;20050;-59
2023/02/17 23:23:36;;;;;;;1.38;1.10;;;;;;;10.56;65.40;100629.13;10353431;28;20041;-59
2023/02/17 23:28:37;;;;;;;1.73;1.00;;;;;;;10.46;65.77;100621.72;10353056;28;20216;-57
2023/02/17 23:33:39;;;;;;;1.73;1.20;;;;;;;10.45;65.88;100624.44;10365652;28;20080;-59